sensor_id;sensor_type;location;lat;lon;timestamp;P1;durP1;ratioP1;P2;durP2;ratioP2
50569;SDS011;36525;49.398;7.614;2022-12-07T00:01:35;18.77;;;10.13;;
50569;SDS011;36525;49.398;7.614;2022-12-07T00:04:05;12.50;;;7.75;;
50569;SDS011;36525;49.398;7.614;2022-12-07T00:06:35;10.73;;;6.68;;
50569;SDS011;36525;49.398;7.614;2022-12-07T00:09:11;11.15;;;7.30;;
50569;SDS011;36525;49.398;7.614;2022-12-07T00:11:41;11.70;;;7.18;;
50569;SDS011;36525;49.398;7.614;2022-12-07T00:14:12;11.93;;;8.00;;
50569;SDS011;36525;49.398;7.614;2022-12-07T00:16:41;14.70;;;7.53;;
50569;SDS011;36525;49.398;7.614;2022-12-07T00:19:10;13.30;;;7.78;;
50569;SDS011;36525;49.398;7.614;2022-12-07T00:21:38;12.73;;;7.45;;
50569;SDS011;36525;49.398;7.614;2022-12-07T00:24:06;10.15;;;6.85;;
50569;SDS011;36525;49.398;7.614;2022-12-07T00:26:34;13.18;;;7.10;;
50569;SDS011;36525;49.398;7.614;2022-12-07T00:29:09;14.18;;;8.70;;
50569;SDS011;36525;49.398;7.614;2022-12-07T00:31:46;14.50;;;7.75;;
50569;SDS011;36525;49.398;7.614;2022-12-07T00:34:15;12.98;;;7.50;;
50569;SDS011;36525;49.398;7.614;2022-12-07T00:36:48;11.10;;;6.57;;
50569;SDS011;36525;49.398;7.614;2022-12-07T00:39:16;9.73;;;6.43;;
50569;SDS011;36525;49.398;7.614;2022-12-07T00:41:43;9.65;;;6.30;;
50569;SDS011;36525;49.398;7.614;2022-12-07T00:44:10;11.30;;;7.57;;
50569;SDS011;36525;49.398;7.614;2022-12-07T00:46:37;11.30;;;7.13;;
50569;SDS011;36525;49.398;7.614;2022-12-07T00:49:04;12.80;;;8.02;;
50569;SDS011;36525;49.398;7.614;2022-12-07T00:51:31;11.82;;;7.13;;
50569;SDS011;36525;49.398;7.614;2022-12-07T00:53:58;10.88;;;6.35;;
50569;SDS011;36525;49.398;7.614;2022-12-07T00:56:26;9.20;;;5.65;;
50569;SDS011;36525;49.398;7.614;2022-12-07T00:58:58;11.18;;;6.65;;
50569;SDS011;36525;49.398;7.614;2022-12-07T01:03:57;8.43;;;4.38;;
50569;SDS011;36525;49.398;7.614;2022-12-07T01:06:24;9.07;;;4.97;;
50569;SDS011;36525;49.398;7.614;2022-12-07T01:08:52;7.93;;;5.30;;
50569;SDS011;36525;49.398;7.614;2022-12-07T01:11:23;9.30;;;5.00;;
50569;SDS011;36525;49.398;7.614;2022-12-07T01:13:54;9.40;;;5.38;;
50569;SDS011;36525;49.398;7.614;2022-12-07T01:16:24;9.57;;;5.20;;
50569;SDS011;36525;49.398;7.614;2022-12-07T01:18:54;10.18;;;5.70;;
50569;SDS011;36525;49.398;7.614;2022-12-07T01:21:26;10.52;;;5.85;;
50569;SDS011;36525;49.398;7.614;2022-12-07T01:23:57;9.57;;;5.07;;
50569;SDS011;36525;49.398;7.614;2022-12-07T01:26:24;8.85;;;5.57;;
50569;SDS011;36525;49.398;7.614;2022-12-07T01:28:53;8.23;;;4.97;;
50569;SDS011;36525;49.398;7.614;2022-12-07T01:31:22;10.55;;;6.10;;
50569;SDS011;36525;49.398;7.614;2022-12-07T01:33:52;9.68;;;6.18;;
50569;SDS011;36525;49.398;7.614;2022-12-07T01:36:24;9.83;;;6.43;;
50569;SDS011;36525;49.398;7.614;2022-12-07T01:38:58;14.30;;;7.57;;
50569;SDS011;36525;49.398;7.614;2022-12-07T01:41:30;9.30;;;6.35;;
50569;SDS011;36525;49.398;7.614;2022-12-07T01:46:51;14.45;;;7.00;;
50569;SDS011;36525;49.398;7.614;2022-12-07T01:49:40;11.07;;;6.72;;
50569;SDS011;36525;49.398;7.614;2022-12-07T01:52:18;13.25;;;7.65;;
50569;SDS011;36525;49.398;7.614;2022-12-07T01:54:56;12.57;;;7.20;;
50569;SDS011;36525;49.398;7.614;2022-12-07T01:57:32;11.30;;;6.65;;
50569;SDS011;36525;49.398;7.614;2022-12-07T02:00:01;11.05;;;6.72;;
50569;SDS011;36525;49.398;7.614;2022-12-07T02:02:36;11.27;;;6.90;;
50569;SDS011;36525;49.398;7.614;2022-12-07T02:05:14;14.97;;;8.57;;
50569;SDS011;36525;49.398;7.614;2022-12-07T02:07:41;12.25;;;7.28;;
50569;SDS011;36525;49.398;7.614;2022-12-07T02:10:42;12.23;;;7.13;;
50569;SDS011;36525;49.398;7.614;2022-12-07T02:13:23;14.10;;;7.72;;
50569;SDS011;36525;49.398;7.614;2022-12-07T02:19:21;12.67;;;8.07;;
50569;SDS011;36525;49.398;7.614;2022-12-07T02:28:05;13.32;;;7.32;;
50569;SDS011;36525;49.398;7.614;2022-12-07T02:30:56;14.85;;;9.13;;
50569;SDS011;36525;49.398;7.614;2022-12-07T02:33:33;15.20;;;7.82;;
50569;SDS011;36525;49.398;7.614;2022-12-07T02:36:43;17.80;;;8.90;;
50569;SDS011;36525;49.398;7.614;2022-12-07T02:40:05;15.02;;;8.63;;
50569;SDS011;36525;49.398;7.614;2022-12-07T02:42:25;13.93;;;8.82;;
50569;SDS011;36525;49.398;7.614;2022-12-07T02:44:59;17.73;;;9.68;;
50569;SDS011;36525;49.398;7.614;2022-12-07T02:47:28;16.00;;;9.50;;
50569;SDS011;36525;49.398;7.614;2022-12-07T02:49:56;19.80;;;10.80;;
50569;SDS011;36525;49.398;7.614;2022-12-07T02:52:23;13.57;;;8.52;;
50569;SDS011;36525;49.398;7.614;2022-12-07T02:54:50;16.30;;;9.63;;
50569;SDS011;36525;49.398;7.614;2022-12-07T03:00:06;17.50;;;9.82;;
50569;SDS011;36525;49.398;7.614;2022-12-07T03:02:43;17.88;;;10.25;;
50569;SDS011;36525;49.398;7.614;2022-12-07T03:08:23;18.13;;;11.07;;
50569;SDS011;36525;49.398;7.614;2022-12-07T03:11:16;20.42;;;9.98;;
50569;SDS011;36525;49.398;7.614;2022-12-07T03:13:59;22.67;;;11.50;;
50569;SDS011;36525;49.398;7.614;2022-12-07T03:16:30;19.63;;;10.23;;
50569;SDS011;36525;49.398;7.614;2022-12-07T03:19:21;15.27;;;9.55;;
50569;SDS011;36525;49.398;7.614;2022-12-07T03:21:55;19.25;;;10.07;;
50569;SDS011;36525;49.398;7.614;2022-12-07T03:24:31;18.67;;;9.95;;
50569;SDS011;36525;49.398;7.614;2022-12-07T03:27:17;19.67;;;11.55;;
50569;SDS011;36525;49.398;7.614;2022-12-07T03:30:04;20.92;;;10.80;;
50569;SDS011;36525;49.398;7.614;2022-12-07T03:32:41;20.63;;;10.63;;
50569;SDS011;36525;49.398;7.614;2022-12-07T03:35:31;18.50;;;11.50;;
50569;SDS011;36525;49.398;7.614;2022-12-07T03:38:53;17.40;;;10.68;;
50569;SDS011;36525;49.398;7.614;2022-12-07T03:41:35;20.35;;;10.52;;
50569;SDS011;36525;49.398;7.614;2022-12-07T03:44:10;18.63;;;10.98;;
50569;SDS011;36525;49.398;7.614;2022-12-07T03:46:42;20.73;;;10.60;;
50569;SDS011;36525;49.398;7.614;2022-12-07T03:49:43;17.30;;;11.63;;
50569;SDS011;36525;49.398;7.614;2022-12-07T03:57:58;16.65;;;10.93;;
50569;SDS011;36525;49.398;7.614;2022-12-07T04:00:31;17.63;;;11.15;;
50569;SDS011;36525;49.398;7.614;2022-12-07T04:02:59;15.98;;;9.73;;
50569;SDS011;36525;49.398;7.614;2022-12-07T04:05:25;19.35;;;11.05;;
50569;SDS011;36525;49.398;7.614;2022-12-07T04:07:53;16.40;;;10.63;;
50569;SDS011;36525;49.398;7.614;2022-12-07T04:10:20;17.90;;;10.77;;
50569;SDS011;36525;49.398;7.614;2022-12-07T04:12:47;16.15;;;9.63;;
50569;SDS011;36525;49.398;7.614;2022-12-07T04:15:14;17.23;;;10.80;;
50569;SDS011;36525;49.398;7.614;2022-12-07T04:17:42;16.65;;;9.88;;
50569;SDS011;36525;49.398;7.614;2022-12-07T04:20:09;20.10;;;11.02;;
50569;SDS011;36525;49.398;7.614;2022-12-07T04:22:37;20.65;;;10.90;;
50569;SDS011;36525;49.398;7.614;2022-12-07T04:25:04;20.05;;;11.02;;
50569;SDS011;36525;49.398;7.614;2022-12-07T04:27:32;16.50;;;9.68;;
50569;SDS011;36525;49.398;7.614;2022-12-07T04:29:59;15.95;;;10.57;;
50569;SDS011;36525;49.398;7.614;2022-12-07T04:32:26;22.52;;;10.98;;
50569;SDS011;36525;49.398;7.614;2022-12-07T04:34:53;18.85;;;11.52;;
50569;SDS011;36525;49.398;7.614;2022-12-07T04:37:21;20.88;;;11.85;;
50569;SDS011;36525;49.398;7.614;2022-12-07T04:39:49;18.55;;;11.00;;
50569;SDS011;36525;49.398;7.614;2022-12-07T04:42:16;23.08;;;13.05;;
50569;SDS011;36525;49.398;7.614;2022-12-07T04:44:43;23.70;;;13.02;;
50569;SDS011;36525;49.398;7.614;2022-12-07T04:47:10;20.27;;;12.40;;
50569;SDS011;36525;49.398;7.614;2022-12-07T04:49:37;19.70;;;11.65;;
50569;SDS011;36525;49.398;7.614;2022-12-07T04:52:04;22.00;;;12.20;;
50569;SDS011;36525;49.398;7.614;2022-12-07T04:54:32;21.52;;;12.18;;
50569;SDS011;36525;49.398;7.614;2022-12-07T04:56:59;20.85;;;11.55;;
50569;SDS011;36525;49.398;7.614;2022-12-07T04:59:25;24.40;;;13.88;;
50569;SDS011;36525;49.398;7.614;2022-12-07T05:01:52;20.92;;;11.45;;
50569;SDS011;36525;49.398;7.614;2022-12-07T05:04:19;24.27;;;13.35;;
50569;SDS011;36525;49.398;7.614;2022-12-07T05:06:46;21.67;;;13.02;;
50569;SDS011;36525;49.398;7.614;2022-12-07T05:09:13;20.90;;;11.48;;
50569;SDS011;36525;49.398;7.614;2022-12-07T05:11:40;20.52;;;12.45;;
50569;SDS011;36525;49.398;7.614;2022-12-07T05:14:18;21.52;;;12.43;;
50569;SDS011;36525;49.398;7.614;2022-12-07T05:16:47;22.38;;;12.25;;
50569;SDS011;36525;49.398;7.614;2022-12-07T05:19:17;21.80;;;13.85;;
50569;SDS011;36525;49.398;7.614;2022-12-07T05:21:45;27.67;;;13.43;;
50569;SDS011;36525;49.398;7.614;2022-12-07T05:24:13;24.35;;;15.05;;
50569;SDS011;36525;49.398;7.614;2022-12-07T05:26:41;23.80;;;12.75;;
50569;SDS011;36525;49.398;7.614;2022-12-07T05:29:13;23.92;;;14.45;;
50569;SDS011;36525;49.398;7.614;2022-12-07T05:31:42;23.23;;;13.32;;
50569;SDS011;36525;49.398;7.614;2022-12-07T05:34:10;25.92;;;15.13;;
50569;SDS011;36525;49.398;7.614;2022-12-07T05:36:37;24.13;;;14.38;;
50569;SDS011;36525;49.398;7.614;2022-12-07T05:39:04;22.33;;;12.75;;
50569;SDS011;36525;49.398;7.614;2022-12-07T05:41:31;22.60;;;13.50;;
50569;SDS011;36525;49.398;7.614;2022-12-07T05:44:17;21.98;;;12.95;;
50569;SDS011;36525;49.398;7.614;2022-12-07T05:46:44;21.45;;;12.88;;
50569;SDS011;36525;49.398;7.614;2022-12-07T05:49:11;24.58;;;15.05;;
50569;SDS011;36525;49.398;7.614;2022-12-07T05:51:38;22.02;;;13.75;;
50569;SDS011;36525;49.398;7.614;2022-12-07T05:54:05;29.83;;;15.00;;
50569;SDS011;36525;49.398;7.614;2022-12-07T05:56:32;28.02;;;17.10;;
50569;SDS011;36525;49.398;7.614;2022-12-07T05:58:59;25.27;;;15.57;;
50569;SDS011;36525;49.398;7.614;2022-12-07T06:01:44;24.45;;;14.15;;
50569;SDS011;36525;49.398;7.614;2022-12-07T06:04:11;25.17;;;14.55;;
50569;SDS011;36525;49.398;7.614;2022-12-07T06:06:38;29.45;;;17.00;;
50569;SDS011;36525;49.398;7.614;2022-12-07T06:09:05;30.75;;;16.67;;
50569;SDS011;36525;49.398;7.614;2022-12-07T06:11:32;31.73;;;16.92;;
50569;SDS011;36525;49.398;7.614;2022-12-07T06:14:18;25.90;;;15.60;;
50569;SDS011;36525;49.398;7.614;2022-12-07T06:16:45;31.55;;;15.35;;
50569;SDS011;36525;49.398;7.614;2022-12-07T06:19:12;31.17;;;16.58;;
50569;SDS011;36525;49.398;7.614;2022-12-07T06:21:39;29.60;;;17.77;;
50569;SDS011;36525;49.398;7.614;2022-12-07T06:24:06;30.20;;;18.08;;
50569;SDS011;36525;49.398;7.614;2022-12-07T06:26:34;33.15;;;18.70;;
50569;SDS011;36525;49.398;7.614;2022-12-07T06:29:01;29.90;;;16.40;;
50569;SDS011;36525;49.398;7.614;2022-12-07T06:31:28;31.60;;;17.73;;
50569;SDS011;36525;49.398;7.614;2022-12-07T06:34:03;28.95;;;16.70;;
50569;SDS011;36525;49.398;7.614;2022-12-07T06:36:32;28.63;;;15.65;;
50569;SDS011;36525;49.398;7.614;2022-12-07T06:38:59;25.88;;;14.98;;
50569;SDS011;36525;49.398;7.614;2022-12-07T06:41:27;30.90;;;17.15;;
50569;SDS011;36525;49.398;7.614;2022-12-07T06:43:54;26.42;;;16.20;;
50569;SDS011;36525;49.398;7.614;2022-12-07T06:46:21;28.80;;;15.35;;
50569;SDS011;36525;49.398;7.614;2022-12-07T06:48:49;29.02;;;16.88;;
50569;SDS011;36525;49.398;7.614;2022-12-07T06:51:16;29.58;;;16.30;;
50569;SDS011;36525;49.398;7.614;2022-12-07T06:53:43;33.15;;;18.48;;
50569;SDS011;36525;49.398;7.614;2022-12-07T06:56:10;32.00;;;19.92;;
50569;SDS011;36525;49.398;7.614;2022-12-07T06:58:38;29.95;;;16.52;;
50569;SDS011;36525;49.398;7.614;2022-12-07T07:01:12;30.67;;;18.25;;
50569;SDS011;36525;49.398;7.614;2022-12-07T07:03:41;26.95;;;16.35;;
50569;SDS011;36525;49.398;7.614;2022-12-07T07:06:09;28.77;;;17.60;;
50569;SDS011;36525;49.398;7.614;2022-12-07T07:08:36;25.83;;;16.55;;
50569;SDS011;36525;49.398;7.614;2022-12-07T07:11:04;23.83;;;14.63;;
50569;SDS011;36525;49.398;7.614;2022-12-07T07:13:32;23.33;;;13.95;;
50569;SDS011;36525;49.398;7.614;2022-12-07T07:15:59;25.58;;;14.98;;
50569;SDS011;36525;49.398;7.614;2022-12-07T07:18:26;27.52;;;16.15;;
50569;SDS011;36525;49.398;7.614;2022-12-07T07:20:54;24.42;;;14.98;;
50569;SDS011;36525;49.398;7.614;2022-12-07T07:23:21;22.42;;;13.10;;
50569;SDS011;36525;49.398;7.614;2022-12-07T07:25:49;19.02;;;11.90;;
50569;SDS011;36525;49.398;7.614;2022-12-07T07:28:16;20.27;;;12.57;;
50569;SDS011;36525;49.398;7.614;2022-12-07T07:30:43;25.80;;;16.23;;
50569;SDS011;36525;49.398;7.614;2022-12-07T07:33:11;26.23;;;14.98;;
50569;SDS011;36525;49.398;7.614;2022-12-07T07:35:39;26.52;;;16.67;;
50569;SDS011;36525;49.398;7.614;2022-12-07T07:38:06;29.65;;;16.67;;
50569;SDS011;36525;49.398;7.614;2022-12-07T07:40:33;26.48;;;15.55;;
50569;SDS011;36525;49.398;7.614;2022-12-07T07:43:00;26.75;;;16.65;;
50569;SDS011;36525;49.398;7.614;2022-12-07T07:45:28;27.95;;;17.05;;
50569;SDS011;36525;49.398;7.614;2022-12-07T07:47:55;30.38;;;18.45;;
50569;SDS011;36525;49.398;7.614;2022-12-07T07:50:22;30.88;;;18.85;;
50569;SDS011;36525;49.398;7.614;2022-12-07T07:52:49;30.48;;;18.35;;
50569;SDS011;36525;49.398;7.614;2022-12-07T07:55:17;32.42;;;19.38;;
50569;SDS011;36525;49.398;7.614;2022-12-07T07:57:44;33.78;;;18.42;;
50569;SDS011;36525;49.398;7.614;2022-12-07T08:00:19;27.08;;;17.95;;
50569;SDS011;36525;49.398;7.614;2022-12-07T08:02:47;30.20;;;17.70;;
50569;SDS011;36525;49.398;7.614;2022-12-07T08:05:14;34.83;;;19.63;;
50569;SDS011;36525;49.398;7.614;2022-12-07T08:07:41;27.50;;;15.98;;
50569;SDS011;36525;49.398;7.614;2022-12-07T08:10:10;28.58;;;16.42;;
50569;SDS011;36525;49.398;7.614;2022-12-07T08:12:40;27.33;;;16.48;;
50569;SDS011;36525;49.398;7.614;2022-12-07T08:15:28;25.73;;;16.55;;
50569;SDS011;36525;49.398;7.614;2022-12-07T08:17:56;33.45;;;18.35;;
50569;SDS011;36525;49.398;7.614;2022-12-07T08:20:24;28.00;;;16.30;;
50569;SDS011;36525;49.398;7.614;2022-12-07T08:22:51;30.00;;;18.25;;
50569;SDS011;36525;49.398;7.614;2022-12-07T08:25:18;31.45;;;18.45;;
50569;SDS011;36525;49.398;7.614;2022-12-07T08:27:47;30.50;;;16.98;;
50569;SDS011;36525;49.398;7.614;2022-12-07T08:30:15;29.80;;;16.35;;
50569;SDS011;36525;49.398;7.614;2022-12-07T08:32:45;29.90;;;17.55;;
50569;SDS011;36525;49.398;7.614;2022-12-07T08:35:14;25.88;;;16.40;;
50569;SDS011;36525;49.398;7.614;2022-12-07T08:37:42;27.42;;;16.60;;
50569;SDS011;36525;49.398;7.614;2022-12-07T08:40:10;28.75;;;17.20;;
50569;SDS011;36525;49.398;7.614;2022-12-07T08:42:41;34.45;;;18.00;;
50569;SDS011;36525;49.398;7.614;2022-12-07T08:45:11;32.10;;;19.13;;
50569;SDS011;36525;49.398;7.614;2022-12-07T08:47:42;37.75;;;19.77;;
50569;SDS011;36525;49.398;7.614;2022-12-07T08:50:19;27.23;;;16.95;;
50569;SDS011;36525;49.398;7.614;2022-12-07T08:52:50;25.95;;;16.10;;
50569;SDS011;36525;49.398;7.614;2022-12-07T08:55:21;27.08;;;17.27;;
50569;SDS011;36525;49.398;7.614;2022-12-07T08:57:49;32.88;;;18.58;;
50569;SDS011;36525;49.398;7.614;2022-12-07T09:00:17;32.22;;;18.15;;
50569;SDS011;36525;49.398;7.614;2022-12-07T09:02:44;30.33;;;17.05;;
50569;SDS011;36525;49.398;7.614;2022-12-07T09:05:12;28.23;;;17.30;;
50569;SDS011;36525;49.398;7.614;2022-12-07T09:07:46;32.17;;;18.45;;
50569;SDS011;36525;49.398;7.614;2022-12-07T09:10:18;26.90;;;16.65;;
50569;SDS011;36525;49.398;7.614;2022-12-07T09:12:45;30.55;;;17.67;;
50569;SDS011;36525;49.398;7.614;2022-12-07T09:15:12;28.40;;;16.77;;
50569;SDS011;36525;49.398;7.614;2022-12-07T09:17:39;27.95;;;15.82;;
50569;SDS011;36525;49.398;7.614;2022-12-07T09:20:06;31.70;;;17.67;;
50569;SDS011;36525;49.398;7.614;2022-12-07T09:22:34;28.10;;;16.95;;
50569;SDS011;36525;49.398;7.614;2022-12-07T09:25:01;27.85;;;17.30;;
50569;SDS011;36525;49.398;7.614;2022-12-07T09:27:29;23.88;;;14.15;;
50569;SDS011;36525;49.398;7.614;2022-12-07T09:29:56;27.95;;;16.73;;
50569;SDS011;36525;49.398;7.614;2022-12-07T09:32:23;29.67;;;17.63;;
50569;SDS011;36525;49.398;7.614;2022-12-07T09:34:50;26.58;;;16.52;;
50569;SDS011;36525;49.398;7.614;2022-12-07T09:37:17;31.20;;;16.38;;
50569;SDS011;36525;49.398;7.614;2022-12-07T09:39:44;24.60;;;16.77;;
50569;SDS011;36525;49.398;7.614;2022-12-07T09:42:24;26.88;;;15.68;;
50569;SDS011;36525;49.398;7.614;2022-12-07T09:45:06;25.75;;;14.88;;
50569;SDS011;36525;49.398;7.614;2022-12-07T09:47:39;26.38;;;16.17;;
50569;SDS011;36525;49.398;7.614;2022-12-07T09:50:10;23.75;;;15.15;;
50569;SDS011;36525;49.398;7.614;2022-12-07T09:52:42;24.25;;;15.93;;
50569;SDS011;36525;49.398;7.614;2022-12-07T09:55:12;27.30;;;16.73;;
50569;SDS011;36525;49.398;7.614;2022-12-07T09:57:49;31.15;;;18.42;;
50569;SDS011;36525;49.398;7.614;2022-12-07T10:00:18;28.85;;;17.83;;
50569;SDS011;36525;49.398;7.614;2022-12-07T10:03:01;29.98;;;18.55;;
50569;SDS011;36525;49.398;7.614;2022-12-07T10:05:30;27.73;;;18.45;;
50569;SDS011;36525;49.398;7.614;2022-12-07T10:08:17;29.60;;;19.17;;
50569;SDS011;36525;49.398;7.614;2022-12-07T10:10:45;24.77;;;17.42;;
50569;SDS011;36525;49.398;7.614;2022-12-07T10:13:20;26.85;;;16.27;;
50569;SDS011;36525;49.398;7.614;2022-12-07T10:16:01;27.38;;;15.85;;
50569;SDS011;36525;49.398;7.614;2022-12-07T10:18:39;40.30;;;24.35;;
50569;SDS011;36525;49.398;7.614;2022-12-07T10:23:35;43.20;;;27.55;;
50569;SDS011;36525;49.398;7.614;2022-12-07T10:26:24;38.47;;;23.17;;
50569;SDS011;36525;49.398;7.614;2022-12-07T10:29:32;25.95;;;15.40;;
50569;SDS011;36525;49.398;7.614;2022-12-07T10:32:04;23.98;;;14.63;;
50569;SDS011;36525;49.398;7.614;2022-12-07T10:35:18;24.20;;;15.18;;
50569;SDS011;36525;49.398;7.614;2022-12-07T10:37:52;21.23;;;13.18;;
50569;SDS011;36525;49.398;7.614;2022-12-07T10:43:00;29.65;;;17.73;;
50569;SDS011;36525;49.398;7.614;2022-12-07T10:54:07;24.08;;;16.10;;
50569;SDS011;36525;49.398;7.614;2022-12-07T10:59:41;28.77;;;16.70;;
50569;SDS011;36525;49.398;7.614;2022-12-07T11:02:35;24.45;;;14.23;;
50569;SDS011;36525;49.398;7.614;2022-12-07T11:05:18;25.92;;;13.98;;
50569;SDS011;36525;49.398;7.614;2022-12-07T11:11:13;19.45;;;12.98;;
50569;SDS011;36525;49.398;7.614;2022-12-07T11:26:05;20.17;;;11.85;;
50569;SDS011;36525;49.398;7.614;2022-12-07T11:31:41;23.63;;;14.88;;
50569;SDS011;36525;49.398;7.614;2022-12-07T11:34:45;16.02;;;10.18;;
50569;SDS011;36525;49.398;7.614;2022-12-07T11:37:39;15.68;;;9.85;;
50569;SDS011;36525;49.398;7.614;2022-12-07T11:43:40;17.38;;;10.35;;
50569;SDS011;36525;49.398;7.614;2022-12-07T11:46:03;18.23;;;10.63;;
50569;SDS011;36525;49.398;7.614;2022-12-07T11:48:44;18.85;;;9.95;;
50569;SDS011;36525;49.398;7.614;2022-12-07T11:51:21;14.87;;;10.03;;
50569;SDS011;36525;49.398;7.614;2022-12-07T11:54:05;17.58;;;10.20;;
50569;SDS011;36525;49.398;7.614;2022-12-07T11:56:51;19.10;;;11.18;;
50569;SDS011;36525;49.398;7.614;2022-12-07T11:59:23;15.20;;;9.73;;
50569;SDS011;36525;49.398;7.614;2022-12-07T12:02:02;16.00;;;10.13;;
50569;SDS011;36525;49.398;7.614;2022-12-07T12:07:42;15.80;;;10.57;;
50569;SDS011;36525;49.398;7.614;2022-12-07T12:10:45;15.05;;;8.65;;
50569;SDS011;36525;49.398;7.614;2022-12-07T12:20:04;15.02;;;9.38;;
50569;SDS011;36525;49.398;7.614;2022-12-07T12:23:01;16.50;;;9.43;;
50569;SDS011;36525;49.398;7.614;2022-12-07T12:25:43;14.53;;;9.63;;
50569;SDS011;36525;49.398;7.614;2022-12-07T12:28:22;14.63;;;9.20;;
50569;SDS011;36525;49.398;7.614;2022-12-07T12:31:16;13.73;;;9.23;;
50569;SDS011;36525;49.398;7.614;2022-12-07T12:33:59;16.33;;;10.77;;
50569;SDS011;36525;49.398;7.614;2022-12-07T12:39:15;14.10;;;8.88;;
50569;SDS011;36525;49.398;7.614;2022-12-07T12:51:49;16.95;;;9.95;;
50569;SDS011;36525;49.398;7.614;2022-12-07T12:54:30;18.77;;;9.93;;
50569;SDS011;36525;49.398;7.614;2022-12-07T12:57:04;30.25;;;18.48;;
50569;SDS011;36525;49.398;7.614;2022-12-07T12:59:40;16.27;;;9.35;;
50569;SDS011;36525;49.398;7.614;2022-12-07T13:26:18;11.95;;;7.57;;
50569;SDS011;36525;49.398;7.614;2022-12-07T13:31:49;13.07;;;7.15;;
50569;SDS011;36525;49.398;7.614;2022-12-07T13:37:12;14.10;;;8.57;;
50569;SDS011;36525;49.398;7.614;2022-12-07T13:39:52;12.48;;;7.63;;
50569;SDS011;36525;49.398;7.614;2022-12-07T13:42:41;12.27;;;7.13;;
50569;SDS011;36525;49.398;7.614;2022-12-07T13:45:21;13.07;;;7.47;;
50569;SDS011;36525;49.398;7.614;2022-12-07T13:48:21;12.77;;;6.97;;
50569;SDS011;36525;49.398;7.614;2022-12-07T13:50:59;15.75;;;7.68;;
50569;SDS011;36525;49.398;7.614;2022-12-07T13:53:29;11.80;;;7.10;;
50569;SDS011;36525;49.398;7.614;2022-12-07T13:55:57;14.30;;;7.38;;
50569;SDS011;36525;49.398;7.614;2022-12-07T13:58:30;12.05;;;6.93;;
50569;SDS011;36525;49.398;7.614;2022-12-07T14:03:28;13.18;;;7.40;;
50569;SDS011;36525;49.398;7.614;2022-12-07T14:06:20;12.82;;;8.38;;
50569;SDS011;36525;49.398;7.614;2022-12-07T14:09:08;15.63;;;8.70;;
50569;SDS011;36525;49.398;7.614;2022-12-07T14:11:46;16.73;;;7.47;;
50569;SDS011;36525;49.398;7.614;2022-12-07T14:14:37;12.85;;;6.85;;
50569;SDS011;36525;49.398;7.614;2022-12-07T14:17:16;13.68;;;6.95;;
50569;SDS011;36525;49.398;7.614;2022-12-07T14:22:34;14.07;;;7.72;;
50569;SDS011;36525;49.398;7.614;2022-12-07T14:25:22;11.98;;;7.35;;
50569;SDS011;36525;49.398;7.614;2022-12-07T14:27:54;11.50;;;6.40;;
50569;SDS011;36525;49.398;7.614;2022-12-07T14:30:25;13.02;;;7.93;;
50569;SDS011;36525;49.398;7.614;2022-12-07T14:33:01;15.45;;;9.27;;
50569;SDS011;36525;49.398;7.614;2022-12-07T14:35:30;12.75;;;7.97;;
50569;SDS011;36525;49.398;7.614;2022-12-07T14:37:58;18.40;;;8.90;;
50569;SDS011;36525;49.398;7.614;2022-12-07T14:40:27;13.23;;;8.25;;
50569;SDS011;36525;49.398;7.614;2022-12-07T14:42:57;14.90;;;9.02;;
50569;SDS011;36525;49.398;7.614;2022-12-07T14:45:37;13.57;;;7.70;;
50569;SDS011;36525;49.398;7.614;2022-12-07T14:48:05;14.38;;;8.68;;
50569;SDS011;36525;49.398;7.614;2022-12-07T14:51:02;14.88;;;9.25;;
50569;SDS011;36525;49.398;7.614;2022-12-07T14:53:51;15.93;;;9.63;;
50569;SDS011;36525;49.398;7.614;2022-12-07T14:56:22;17.83;;;9.80;;
50569;SDS011;36525;49.398;7.614;2022-12-07T14:58:50;18.42;;;10.13;;
50569;SDS011;36525;49.398;7.614;2022-12-07T15:01:17;14.93;;;7.90;;
50569;SDS011;36525;49.398;7.614;2022-12-07T15:03:44;12.68;;;7.78;;
50569;SDS011;36525;49.398;7.614;2022-12-07T15:06:15;15.15;;;7.70;;
50569;SDS011;36525;49.398;7.614;2022-12-07T15:08:44;13.95;;;7.25;;
50569;SDS011;36525;49.398;7.614;2022-12-07T15:11:12;14.80;;;8.13;;
50569;SDS011;36525;49.398;7.614;2022-12-07T15:13:40;15.27;;;7.28;;
50569;SDS011;36525;49.398;7.614;2022-12-07T15:16:26;12.95;;;7.10;;
50569;SDS011;36525;49.398;7.614;2022-12-07T15:19:08;11.27;;;6.68;;
50569;SDS011;36525;49.398;7.614;2022-12-07T15:21:54;14.65;;;8.75;;
50569;SDS011;36525;49.398;7.614;2022-12-07T15:24:23;14.43;;;7.50;;
50569;SDS011;36525;49.398;7.614;2022-12-07T15:26:50;13.07;;;7.03;;
50569;SDS011;36525;49.398;7.614;2022-12-07T15:29:17;12.55;;;7.00;;
50569;SDS011;36525;49.398;7.614;2022-12-07T15:31:50;16.38;;;7.93;;
50569;SDS011;36525;49.398;7.614;2022-12-07T15:34:24;14.93;;;8.23;;
50569;SDS011;36525;49.398;7.614;2022-12-07T15:36:52;16.33;;;7.80;;
50569;SDS011;36525;49.398;7.614;2022-12-07T15:39:19;16.48;;;8.48;;
50569;SDS011;36525;49.398;7.614;2022-12-07T15:41:47;17.70;;;10.55;;
50569;SDS011;36525;49.398;7.614;2022-12-07T15:44:14;17.85;;;9.52;;
50569;SDS011;36525;49.398;7.614;2022-12-07T15:47:00;16.73;;;9.32;;
50569;SDS011;36525;49.398;7.614;2022-12-07T15:49:27;18.48;;;9.77;;
50569;SDS011;36525;49.398;7.614;2022-12-07T15:51:54;17.60;;;9.02;;
50569;SDS011;36525;49.398;7.614;2022-12-07T15:54:22;14.07;;;8.23;;
50569;SDS011;36525;49.398;7.614;2022-12-07T15:56:50;17.85;;;8.82;;
50569;SDS011;36525;49.398;7.614;2022-12-07T15:59:18;17.58;;;9.40;;
50569;SDS011;36525;49.398;7.614;2022-12-07T16:01:45;18.20;;;9.52;;
50569;SDS011;36525;49.398;7.614;2022-12-07T16:04:12;14.73;;;8.23;;
50569;SDS011;36525;49.398;7.614;2022-12-07T16:06:39;12.95;;;7.70;;
50569;SDS011;36525;49.398;7.614;2022-12-07T16:09:07;14.88;;;7.28;;
50569;SDS011;36525;49.398;7.614;2022-12-07T16:11:34;16.73;;;8.02;;
50569;SDS011;36525;49.398;7.614;2022-12-07T16:14:00;15.50;;;9.18;;
50569;SDS011;36525;49.398;7.614;2022-12-07T16:16:28;28.38;;;16.00;;
50569;SDS011;36525;49.398;7.614;2022-12-07T16:18:55;30.55;;;16.58;;
50569;SDS011;36525;49.398;7.614;2022-12-07T16:21:23;28.88;;;16.27;;
50569;SDS011;36525;49.398;7.614;2022-12-07T16:23:51;30.90;;;16.83;;
50569;SDS011;36525;49.398;7.614;2022-12-07T16:26:19;32.45;;;18.15;;
50569;SDS011;36525;49.398;7.614;2022-12-07T16:28:48;32.90;;;18.52;;
50569;SDS011;36525;49.398;7.614;2022-12-07T16:31:17;31.20;;;17.23;;
50569;SDS011;36525;49.398;7.614;2022-12-07T16:33:47;30.30;;;16.02;;
50569;SDS011;36525;49.398;7.614;2022-12-07T16:36:15;55.00;;;29.65;;
50569;SDS011;36525;49.398;7.614;2022-12-07T16:39:04;54.42;;;35.47;;
50569;SDS011;36525;49.398;7.614;2022-12-07T16:41:32;52.42;;;31.13;;
50569;SDS011;36525;49.398;7.614;2022-12-07T16:44:02;52.83;;;33.10;;
50569;SDS011;36525;49.398;7.614;2022-12-07T16:46:35;39.85;;;25.15;;
50569;SDS011;36525;49.398;7.614;2022-12-07T16:49:03;37.72;;;24.90;;
50569;SDS011;36525;49.398;7.614;2022-12-07T16:51:30;34.47;;;21.58;;
50569;SDS011;36525;49.398;7.614;2022-12-07T16:54:00;35.40;;;21.75;;
50569;SDS011;36525;49.398;7.614;2022-12-07T16:56:27;37.25;;;22.77;;
50569;SDS011;36525;49.398;7.614;2022-12-07T16:58:57;29.33;;;18.65;;
50569;SDS011;36525;49.398;7.614;2022-12-07T17:01:24;17.58;;;10.05;;
50569;SDS011;36525;49.398;7.614;2022-12-07T17:03:54;25.60;;;12.98;;